createdAt,value
2019-04-11T00:00:28.460Z,1023.56
2019-04-11T00:01:36.732Z,1023.58
2019-04-11T00:02:29.433Z,1023.53
2019-04-11T00:03:29.244Z,1023.49
2019-04-11T00:04:28.408Z,1023.57
2019-04-11T00:05:29.359Z,1023.65
2019-04-11T00:06:28.397Z,1023.66
2019-04-11T00:07:28.403Z,1023.63
2019-04-11T00:08:28.388Z,1023.60
2019-04-11T00:09:28.356Z,1023.68
2019-04-11T00:10:29.192Z,1023.66
2019-04-11T00:11:28.335Z,1023.60
2019-04-11T00:12:28.470Z,1023.62
2019-04-11T00:13:30.122Z,1023.62
2019-04-11T00:14:29.563Z,1023.58
2019-04-11T00:15:28.761Z,1023.66
2019-04-11T00:16:28.937Z,1023.68
2019-04-11T00:17:28.268Z,1023.68
2019-04-11T00:18:28.269Z,1023.69
2019-04-11T00:19:29.399Z,1023.66
2019-04-11T00:20:28.457Z,1023.69
2019-04-11T00:21:28.849Z,1023.66
2019-04-11T00:22:28.229Z,1023.65
2019-04-11T00:23:28.212Z,1023.64
2019-04-11T00:24:29.211Z,1023.62
2019-04-11T00:25:28.368Z,1023.62
2019-04-11T00:26:28.589Z,1023.47
2019-04-11T00:27:28.852Z,1023.61
2019-04-11T00:28:28.166Z,1023.57
2019-04-11T00:29:28.284Z,1023.59
2019-04-11T00:30:28.261Z,1023.60
2019-04-11T00:31:28.553Z,1023.52
2019-04-11T00:32:28.119Z,1023.57
2019-04-11T00:33:28.116Z,1023.44
2019-04-11T00:34:29.028Z,1023.51
2019-04-11T00:35:28.075Z,1023.57
2019-04-11T00:36:28.418Z,1023.46
2019-04-11T00:37:28.051Z,1023.56
2019-04-11T00:38:28.055Z,1023.50
2019-04-11T00:39:28.069Z,1023.54
2019-04-11T00:40:29.048Z,1023.54
2019-04-11T00:41:28.183Z,1023.53
2019-04-11T00:42:28.352Z,1023.58
2019-04-11T00:43:34.110Z,1023.56
2019-04-11T00:44:28.979Z,1023.57
2019-04-11T00:45:27.987Z,1023.53
2019-04-11T00:46:28.698Z,1023.60
2019-04-11T00:47:28.982Z,1023.60
2019-04-11T00:48:28.020Z,1023.58
2019-04-11T00:49:27.939Z,1023.50
2019-04-11T00:50:29.101Z,1023.57
2019-04-11T00:51:27.925Z,1023.60
2019-04-11T00:52:27.897Z,1023.54
2019-04-11T00:53:27.896Z,1023.61
2019-04-11T00:54:28.913Z,1023.62
2019-04-11T00:55:27.890Z,1023.64
2019-04-11T00:56:28.368Z,1023.62
2019-04-11T00:57:28.575Z,1023.62
2019-04-11T00:58:27.852Z,1023.60
2019-04-11T00:59:27.832Z,1023.66
2019-04-11T01:00:29.054Z,1023.67
2019-04-11T01:01:28.146Z,1023.72
2019-04-11T01:02:27.792Z,1023.67
2019-04-11T01:03:28.385Z,1023.65
2019-04-11T01:04:27.779Z,1023.67
2019-04-11T01:05:27.770Z,1023.71
2019-04-11T01:06:28.029Z,1023.58
2019-04-11T01:07:27.738Z,1023.65
2019-04-11T01:08:27.752Z,1023.68
2019-04-11T01:09:28.470Z,1023.63
2019-04-11T01:10:27.733Z,1023.56
2019-04-11T01:11:27.892Z,1023.66
2019-04-11T01:12:28.718Z,1023.58
2019-04-11T01:13:39.174Z,1023.56
2019-04-11T01:14:29.878Z,1023.54
2019-04-11T01:15:27.647Z,1023.55
2019-04-11T01:16:28.410Z,1023.53
2019-04-11T01:17:27.624Z,1023.51
2019-04-11T01:18:27.778Z,1023.41
2019-04-11T01:19:28.887Z,1023.59
2019-04-11T01:20:27.622Z,1023.67
2019-04-11T01:21:28.534Z,1023.59
2019-04-11T01:22:27.586Z,1023.57
2019-04-11T01:23:27.568Z,1023.60
2019-04-11T01:24:28.129Z,1023.66
2019-04-11T01:25:28.460Z,1023.69
2019-04-11T01:26:28.231Z,1023.68
2019-04-11T01:27:27.538Z,1023.62
2019-04-11T01:28:27.519Z,1023.62
2019-04-11T01:29:27.510Z,1023.59
2019-04-11T01:30:27.545Z,1023.64
2019-04-11T01:31:27.764Z,1023.58
2019-04-11T01:32:28.456Z,1023.60
2019-04-11T01:33:27.535Z,1023.58
2019-04-11T01:34:28.657Z,1023.55
2019-04-11T01:35:27.434Z,1023.62
2019-04-11T01:36:27.442Z,1023.61
2019-04-11T01:37:28.064Z,1023.63
2019-04-11T01:38:28.300Z,1023.62
2019-04-11T01:39:27.938Z,1023.65
2019-04-11T01:40:27.382Z,1023.58
2019-04-11T01:41:27.392Z,1023.60
2019-04-11T01:42:27.360Z,1023.61
2019-04-11T01:43:28.120Z,1023.59
2019-04-11T01:44:28.308Z,1023.61
2019-04-11T01:45:27.577Z,1023.64
2019-04-11T01:46:27.339Z,1023.68
2019-04-11T01:47:27.308Z,1023.62
2019-04-11T01:48:27.881Z,1023.59
2019-04-11T01:49:28.313Z,1023.55
2019-04-11T01:50:27.277Z,1023.59
2019-04-11T01:51:27.286Z,1023.65
2019-04-11T01:52:27.256Z,1023.69
2019-04-11T01:53:27.246Z,1023.63
2019-04-11T01:54:28.078Z,1023.71
2019-04-11T01:55:28.185Z,1023.64
2019-04-11T01:56:27.412Z,1023.66
2019-04-11T01:57:27.638Z,1023.63
2019-04-11T01:58:27.203Z,1023.69
2019-04-11T01:59:27.192Z,1023.67
2019-04-11T02:00:28.077Z,1023.74
2019-04-11T02:01:27.182Z,1023.63
2019-04-11T02:02:27.156Z,1023.69
2019-04-11T02:03:27.487Z,1023.77
2019-04-11T02:04:27.903Z,1023.78
2019-04-11T02:05:27.228Z,1023.68
2019-04-11T02:06:27.109Z,1023.81
2019-04-11T02:07:27.109Z,1023.68
2019-04-11T02:08:27.177Z,1023.73
2019-04-11T02:09:28.295Z,1023.83
2019-04-11T02:10:27.068Z,1023.81
2019-04-11T02:11:27.707Z,1023.82
2019-04-11T02:12:27.055Z,1023.81
2019-04-11T02:13:27.977Z,1023.80
2019-04-11T02:14:27.977Z,1023.80
2019-04-11T02:15:28.154Z,1023.91
2019-04-11T02:16:27.266Z,1023.75
2019-04-11T02:17:27.051Z,1023.81
2019-04-11T02:18:27.665Z,1023.80
2019-04-11T02:19:28.011Z,1023.75
2019-04-11T02:20:27.187Z,1023.85
2019-04-11T02:21:27.450Z,1023.84
2019-04-11T02:22:26.947Z,1023.73
2019-04-11T02:23:26.932Z,1023.76
2019-04-11T02:24:27.925Z,1023.79
2019-04-11T02:25:27.917Z,1023.85
2019-04-11T02:26:27.265Z,1023.90
2019-04-11T02:27:27.434Z,1023.91
2019-04-11T02:28:26.868Z,1023.88
2019-04-11T02:29:27.705Z,1023.83
2019-04-11T02:30:27.887Z,1023.90
2019-04-11T02:31:28.166Z,1023.88
2019-04-11T02:32:29.007Z,1023.90
2019-04-11T02:33:27.079Z,1023.93
2019-04-11T02:34:27.746Z,1023.94
2019-04-11T02:35:26.952Z,1023.88
2019-04-11T02:36:27.220Z,1023.94
2019-04-11T02:37:26.793Z,1023.94
2019-04-11T02:38:28.308Z,1023.92
2019-04-11T02:39:29.386Z,1023.85
2019-04-11T02:40:27.750Z,1024.00
2019-04-11T02:41:27.482Z,1023.99
2019-04-11T02:42:27.676Z,1023.97
2019-04-11T02:43:26.740Z,1024.01
2019-04-11T02:44:36.612Z,1023.97
2019-04-11T02:45:40.879Z,1023.94
2019-04-11T02:46:35.573Z,1023.94
2019-04-11T02:47:32.462Z,1024.00
2019-04-11T02:48:28.815Z,1023.97
2019-04-11T02:49:27.897Z,1023.89
2019-04-11T02:50:26.772Z,1023.92
2019-04-11T02:51:27.085Z,1024.03
2019-04-11T02:52:27.759Z,1023.99
2019-04-11T02:53:28.222Z,1024.07
2019-04-11T02:54:26.969Z,1024.06
2019-04-11T02:55:27.681Z,1023.96
2019-04-11T02:56:27.803Z,1023.88
2019-04-11T02:57:26.659Z,1024.07
2019-04-11T02:58:27.914Z,1023.91
2019-04-11T02:59:27.422Z,1023.95
2019-04-11T03:00:27.208Z,1024.05
2019-04-11T03:01:28.281Z,1024.03
2019-04-11T03:02:26.843Z,1024.05
2019-04-11T03:03:27.398Z,1024.07
2019-04-11T03:04:27.003Z,1024.08
2019-04-11T03:05:26.862Z,1024.06
2019-04-11T03:06:27.930Z,1024.04
2019-04-11T03:07:26.523Z,1024.04
2019-04-11T03:08:28.175Z,1024.10
2019-04-11T03:09:26.917Z,1024.10
2019-04-11T03:10:27.104Z,1024.10
2019-04-11T03:11:27.548Z,1023.96
2019-04-11T03:12:27.524Z,1024.10
2019-04-11T03:13:27.277Z,1024.02
2019-04-11T03:14:27.737Z,1024.04
2019-04-11T03:15:46.120Z,1024.07
2019-04-11T03:16:40.158Z,1024.01
2019-04-11T03:17:33.420Z,1024.00
2019-04-11T03:18:47.645Z,1024.09
2019-04-11T03:19:42.667Z,1024.06
2019-04-11T03:20:34.349Z,1024.04
2019-04-11T03:21:30.847Z,1024.05
2019-04-11T03:22:27.356Z,1024.07
2019-04-11T03:23:27.882Z,1024.07
2019-04-11T03:24:27.154Z,1024.08
2019-04-11T03:25:28.367Z,1024.05
2019-04-11T03:26:27.060Z,1024.10
2019-04-11T03:27:28.811Z,1024.05
2019-04-11T03:28:30.243Z,1024.05
2019-04-11T03:29:28.725Z,1024.07
2019-04-11T03:30:44.631Z,1024.11
2019-04-11T03:32:04.655Z,1024.08
2019-04-11T03:37:53.939Z,1024.11
2019-04-11T03:38:46.483Z,1024.10
2019-04-11T03:39:44.260Z,1024.05
2019-04-11T03:40:48.110Z,1024.11
2019-04-11T03:41:48.854Z,1024.11
2019-04-11T03:42:38.037Z,1024.14
2019-04-11T03:43:39.768Z,1024.19
2019-04-11T03:44:35.247Z,1024.18
2019-04-11T03:45:48.064Z,1024.15
2019-04-11T03:46:42.146Z,1024.15
2019-04-11T03:47:37.351Z,1024.13
2019-04-11T03:48:40.991Z,1024.11
2019-04-11T03:49:37.548Z,1024.14
2019-04-11T03:50:30.544Z,1024.19
2019-04-11T03:51:27.717Z,1024.22
2019-04-11T03:52:26.066Z,1024.17
2019-04-11T03:53:29.497Z,1024.19
2019-04-11T03:54:25.959Z,1024.15
2019-04-11T03:55:27.940Z,1024.25
2019-04-11T03:56:26.636Z,1024.22
2019-04-11T03:57:27.565Z,1024.26
2019-04-11T03:58:25.993Z,1024.24
2019-04-11T03:59:27.025Z,1024.26
2019-04-11T04:00:31.298Z,1024.26
2019-04-11T04:01:27.009Z,1024.26
2019-04-11T04:02:26.001Z,1024.30
2019-04-11T04:03:26.800Z,1024.22
2019-04-11T04:04:26.775Z,1024.25
2019-04-11T04:05:26.763Z,1024.28
2019-04-11T04:06:25.881Z,1024.31
2019-04-11T04:07:27.659Z,1024.30
2019-04-11T04:08:27.008Z,1024.30
2019-04-11T04:09:26.998Z,1024.31
2019-04-11T04:10:26.069Z,1024.36
2019-04-11T04:11:27.698Z,1024.26
2019-04-11T04:12:27.296Z,1024.28
2019-04-11T04:13:28.259Z,1024.32
2019-04-11T04:14:26.870Z,1024.24
2019-04-11T04:15:47.134Z,1024.24
2019-04-11T04:16:35.646Z,1024.29
2019-04-11T04:17:27.854Z,1024.35
2019-04-11T04:18:25.727Z,1024.33
2019-04-11T04:19:27.080Z,1024.32
2019-04-11T04:20:26.962Z,1024.41
2019-04-11T04:21:26.554Z,1024.34
2019-04-11T04:22:27.108Z,1024.38
2019-04-11T04:23:27.314Z,1024.31
2019-04-11T04:24:27.446Z,1024.36
2019-04-11T04:25:26.173Z,1024.32
2019-04-11T04:26:26.851Z,1024.32
2019-04-11T04:27:27.939Z,1024.35
2019-04-11T04:28:27.127Z,1024.39
2019-04-11T04:29:27.626Z,1024.29
2019-04-11T04:30:27.725Z,1024.29
2019-04-11T04:31:26.676Z,1024.39
2019-04-11T04:32:25.562Z,1024.41
2019-04-11T04:33:26.584Z,1024.30
2019-04-11T04:34:26.025Z,1024.42
2019-04-11T04:35:27.392Z,1024.36
2019-04-11T04:36:27.293Z,1024.36
2019-04-11T04:37:26.720Z,1024.32
2019-04-11T04:38:27.180Z,1024.40
2019-04-11T04:39:27.207Z,1024.38
2019-04-11T04:40:42.153Z,1024.46
2019-04-11T04:41:36.646Z,1024.40
2019-04-11T04:42:32.231Z,1024.39
2019-04-11T04:43:27.511Z,1024.41
2019-04-11T04:44:26.475Z,1024.44
2019-04-11T04:45:25.449Z,1024.41
2019-04-11T04:46:39.607Z,1024.39
2019-04-11T04:47:37.026Z,1024.45
2019-04-11T04:48:28.993Z,1024.43
2019-04-11T04:49:25.382Z,1024.41
2019-04-11T04:50:26.735Z,1024.50
2019-04-11T04:51:26.754Z,1024.45
2019-04-11T04:52:27.241Z,1024.49
2019-04-11T04:53:27.715Z,1024.48
2019-04-11T04:54:25.648Z,1024.49
2019-04-11T04:55:25.981Z,1024.43
2019-04-11T04:56:29.539Z,1024.53
2019-04-11T04:57:26.796Z,1024.52
2019-04-11T04:58:26.519Z,1024.53
2019-04-11T04:59:25.298Z,1024.57
2019-04-11T05:00:25.992Z,1024.60
2019-04-11T05:01:26.623Z,1024.53
2019-04-11T05:02:26.100Z,1024.62
2019-04-11T05:03:26.787Z,1024.59
2019-04-11T05:04:25.228Z,1024.56
2019-04-11T05:05:26.653Z,1024.57
2019-04-11T05:06:26.168Z,1024.63
2019-04-11T05:07:27.513Z,1024.70
2019-04-11T05:08:25.187Z,1024.64
2019-04-11T05:09:25.643Z,1024.66
2019-04-11T05:10:26.376Z,1024.65
2019-04-11T05:11:26.234Z,1024.70
2019-04-11T05:12:26.185Z,1024.73
2019-04-11T05:13:25.385Z,1024.65
2019-04-11T05:14:25.495Z,1024.71
2019-04-11T05:15:26.118Z,1024.64
2019-04-11T05:16:25.094Z,1024.68
2019-04-11T05:17:26.327Z,1024.57
2019-04-11T05:18:25.907Z,1024.72
2019-04-11T05:19:25.546Z,1024.71
2019-04-11T05:20:25.055Z,1024.73
2019-04-11T05:21:25.439Z,1024.76
2019-04-11T05:22:25.024Z,1024.66
2019-04-11T05:23:25.515Z,1024.74
2019-04-11T05:24:26.296Z,1024.79
2019-04-11T05:25:25.022Z,1024.78
2019-04-11T05:26:25.694Z,1024.72
2019-04-11T05:27:25.161Z,1024.76
2019-04-11T05:28:25.480Z,1024.76
2019-04-11T05:29:25.050Z,1024.77
2019-04-11T05:30:25.216Z,1024.77
2019-04-11T05:31:24.931Z,1024.83
2019-04-11T05:32:27.168Z,1024.81
2019-04-11T05:33:25.317Z,1024.87
2019-04-11T05:34:25.811Z,1024.90
2019-04-11T05:35:24.977Z,1024.78
2019-04-11T05:36:24.878Z,1024.88
2019-04-11T05:37:24.966Z,1024.80
2019-04-11T05:38:25.238Z,1024.87
2019-04-11T05:39:25.530Z,1024.88
2019-04-11T05:40:25.899Z,1024.88
2019-04-11T05:41:26.091Z,1024.93
2019-04-11T05:42:26.952Z,1024.84
2019-04-11T05:43:29.280Z,1024.91
2019-04-11T05:44:25.785Z,1024.86
2019-04-11T05:45:26.053Z,1024.93
2019-04-11T05:46:33.487Z,1024.85
2019-04-11T05:47:25.753Z,1024.95
2019-04-11T05:48:25.955Z,1024.96
2019-04-11T05:49:24.733Z,1025.01
2019-04-11T05:50:24.759Z,1025.00
2019-04-11T05:51:25.232Z,1024.91
2019-04-11T05:52:27.370Z,1025.04
2019-04-11T05:53:25.701Z,1025.01
2019-04-11T05:54:25.953Z,1024.95
2019-04-11T05:55:25.854Z,1024.98
2019-04-11T05:56:25.633Z,1025.01
2019-04-11T05:57:31.323Z,1025.08
2019-04-11T05:58:26.205Z,1025.04
2019-04-11T05:59:25.590Z,1025.06
2019-04-11T06:00:24.612Z,1025.03
2019-04-11T06:01:24.618Z,1025.05
2019-04-11T06:02:24.947Z,1024.97
2019-04-11T06:03:24.588Z,1025.04
2019-04-11T06:04:27.221Z,1025.02
2019-04-11T06:05:29.607Z,1025.11
2019-04-11T06:06:26.725Z,1025.17
2019-04-11T06:07:25.141Z,1025.10
2019-04-11T06:08:28.462Z,1025.12
2019-04-11T06:09:30.278Z,1025.11
2019-04-11T06:10:26.151Z,1025.10
2019-04-11T06:11:24.515Z,1025.22
2019-04-11T06:12:25.428Z,1025.16
2019-04-11T06:13:24.651Z,1025.12
2019-04-11T06:14:25.020Z,1025.23
2019-04-11T06:15:24.994Z,1025.17
2019-04-11T06:16:36.091Z,1025.16
2019-04-11T06:17:25.966Z,1025.26
2019-04-11T06:18:31.278Z,1025.23
2019-04-11T06:19:25.402Z,1025.22
2019-04-11T06:20:25.241Z,1025.18
2019-04-11T06:21:24.441Z,1025.21
2019-04-11T06:22:25.517Z,1025.26
2019-04-11T06:23:25.459Z,1025.29
2019-04-11T06:24:24.351Z,1025.23
2019-04-11T06:25:25.796Z,1025.29
2019-04-11T06:26:25.243Z,1025.36
2019-04-11T06:27:24.340Z,1025.27
2019-04-11T06:28:24.406Z,1025.30
2019-04-11T06:29:26.514Z,1025.29
2019-04-11T06:30:24.355Z,1025.32
2019-04-11T06:31:24.794Z,1025.41
2019-04-11T06:32:24.518Z,1025.30
2019-04-11T06:33:24.752Z,1025.30
2019-04-11T06:34:26.538Z,1025.32
2019-04-11T06:35:24.249Z,1025.21
2019-04-11T06:36:26.565Z,1025.19
2019-04-11T06:37:24.217Z,1025.18
2019-04-11T06:38:24.718Z,1025.18
2019-04-11T06:39:24.233Z,1025.24
2019-04-11T06:40:24.888Z,1025.20
2019-04-11T06:41:24.418Z,1025.17
2019-04-11T06:42:26.780Z,1025.31
2019-04-11T06:43:24.181Z,1025.27
2019-04-11T06:44:24.155Z,1025.29
2019-04-11T06:45:24.125Z,1025.28
2019-04-11T06:46:25.052Z,1025.36
2019-04-11T06:47:25.021Z,1025.52
2019-04-11T06:48:25.175Z,1025.45
2019-04-11T06:49:24.646Z,1025.42
2019-04-11T06:50:25.085Z,1025.29
2019-04-11T06:51:24.075Z,1025.39
2019-04-11T06:52:24.435Z,1025.50
2019-04-11T06:53:24.045Z,1025.42
2019-04-11T06:54:25.149Z,1025.47
2019-04-11T06:55:24.041Z,1025.46
2019-04-11T06:56:25.256Z,1025.54
2019-04-11T06:57:23.991Z,1025.49
2019-04-11T06:58:24.001Z,1025.53
2019-04-11T06:59:24.034Z,1025.48
2019-04-11T07:00:25.129Z,1025.55
2019-04-11T07:01:23.993Z,1025.59
2019-04-11T07:02:25.013Z,1025.61
2019-04-11T07:03:26.285Z,1025.52
2019-04-11T07:04:25.313Z,1025.50
2019-04-11T07:05:24.702Z,1025.55
2019-04-11T07:06:23.952Z,1025.68
2019-04-11T07:07:27.000Z,1025.60
2019-04-11T07:08:25.040Z,1025.65
2019-04-11T07:09:24.416Z,1025.60
2019-04-11T07:10:24.564Z,1025.65
2019-04-11T07:11:23.884Z,1025.65
2019-04-11T07:12:24.463Z,1025.53
2019-04-11T07:13:24.837Z,1025.56
2019-04-11T07:14:23.826Z,1025.64
2019-04-11T07:15:24.877Z,1025.65
2019-04-11T07:16:23.826Z,1025.50
2019-04-11T07:17:24.636Z,1025.46
2019-04-11T07:18:24.847Z,1025.31
2019-04-11T07:19:23.844Z,1025.43
2019-04-11T07:20:24.936Z,1025.44
2019-04-11T07:21:23.765Z,1025.41
2019-04-11T07:22:23.764Z,1025.41
2019-04-11T07:23:24.321Z,1025.31
2019-04-11T07:24:24.684Z,1025.42
2019-04-11T07:25:23.779Z,1025.38
2019-04-11T07:26:23.752Z,1025.34
2019-04-11T07:27:23.831Z,1025.47
2019-04-11T07:28:25.164Z,1025.40
2019-04-11T07:29:23.995Z,1025.46
2019-04-11T07:30:25.176Z,1025.54
2019-04-11T07:31:23.631Z,1025.53
2019-04-11T07:32:23.632Z,1025.51
2019-04-11T07:33:24.522Z,1025.67
2019-04-11T07:34:24.224Z,1025.45
2019-04-11T07:35:24.901Z,1025.54
2019-04-11T07:36:23.818Z,1025.50
2019-04-11T07:37:23.702Z,1025.55
2019-04-11T07:38:23.640Z,1025.53
2019-04-11T07:39:24.603Z,1025.61
2019-04-11T07:40:24.143Z,1025.75
2019-04-11T07:41:23.895Z,1025.67
2019-04-11T07:42:23.850Z,1025.77
2019-04-11T07:43:24.764Z,1025.67
2019-04-11T07:44:23.893Z,1025.69
2019-04-11T07:45:23.488Z,1025.70
2019-04-11T07:46:25.170Z,1025.73
2019-04-11T07:47:26.340Z,1025.74
2019-04-11T07:48:23.466Z,1025.72
2019-04-11T07:49:24.443Z,1025.78
2019-04-11T07:50:24.948Z,1025.70
2019-04-11T07:51:23.435Z,1025.84
2019-04-11T07:52:23.458Z,1025.73
2019-04-11T07:53:24.038Z,1025.73
2019-04-11T07:54:23.392Z,1025.84
2019-04-11T07:55:23.471Z,1025.82
2019-04-11T07:56:23.397Z,1025.81
2019-04-11T07:57:23.352Z,1025.89
2019-04-11T07:58:23.917Z,1025.86
2019-04-11T07:59:23.329Z,1025.81
2019-04-11T08:00:36.597Z,1025.86
2019-04-11T08:01:24.920Z,1025.82
2019-04-11T08:02:24.384Z,1025.84
2019-04-11T08:03:23.529Z,1025.88
2019-04-11T08:04:23.981Z,1025.81
2019-04-11T08:05:23.606Z,1025.80
2019-04-11T08:06:24.294Z,1025.84
2019-04-11T08:07:24.376Z,1025.86
2019-04-11T08:08:23.346Z,1025.80
2019-04-11T08:09:24.396Z,1025.86
2019-04-11T08:10:23.222Z,1025.89
2019-04-11T08:11:23.497Z,1025.82
2019-04-11T08:12:23.545Z,1025.86
2019-04-11T08:13:23.288Z,1025.94
2019-04-11T08:14:24.410Z,1025.91
2019-04-11T08:15:23.774Z,1025.87
2019-04-11T08:16:23.353Z,1025.91
2019-04-11T08:17:32.083Z,1025.93
2019-04-11T08:18:24.422Z,1025.92
2019-04-11T08:19:23.139Z,1025.85
2019-04-11T08:20:23.489Z,1025.97
2019-04-11T08:21:23.096Z,1026.00
2019-04-11T08:22:23.157Z,1026.04
2019-04-11T08:23:23.470Z,1026.04
2019-04-11T08:24:25.773Z,1025.98
2019-04-11T08:25:23.111Z,1026.03
2019-04-11T08:26:24.102Z,1026.05
2019-04-11T08:27:23.241Z,1026.06
2019-04-11T08:28:23.028Z,1025.96
2019-04-11T08:29:24.222Z,1026.02
2019-04-11T08:30:26.538Z,1026.01
2019-04-11T08:31:23.019Z,1026.14
2019-04-11T08:32:23.004Z,1026.03
2019-04-11T08:33:22.963Z,1026.08
2019-04-11T08:34:23.664Z,1026.07
2019-04-11T08:35:23.985Z,1026.02
2019-04-11T08:36:24.022Z,1026.05
2019-04-11T08:37:23.318Z,1026.02
2019-04-11T08:38:22.939Z,1025.99
2019-04-11T08:39:22.930Z,1025.99
2019-04-11T08:40:23.935Z,1025.93
2019-04-11T08:41:23.191Z,1026.06
2019-04-11T08:42:23.384Z,1026.06
2019-04-11T08:43:23.409Z,1026.19
2019-04-11T08:44:23.787Z,1026.11
2019-04-11T08:45:23.697Z,1026.20
2019-04-11T08:46:22.850Z,1026.21
2019-04-11T08:47:22.820Z,1026.08
2019-04-11T08:48:22.883Z,1026.09
2019-04-11T08:49:23.739Z,1026.09
2019-04-11T08:50:22.811Z,1026.12
2019-04-11T08:51:23.189Z,1026.07
2019-04-11T08:52:24.333Z,1026.13
2019-04-11T08:53:22.760Z,1026.01
2019-04-11T08:54:23.708Z,1025.88
2019-04-11T08:55:23.228Z,1025.78
2019-04-11T08:56:23.052Z,1025.94
2019-04-11T08:57:23.440Z,1025.93
2019-04-11T08:58:22.724Z,1025.84
2019-04-11T08:59:22.727Z,1025.77
2019-04-11T09:00:22.677Z,1025.93
2019-04-11T09:01:22.667Z,1025.91
2019-04-11T09:02:22.676Z,1025.84
2019-04-11T09:03:23.896Z,1025.91
2019-04-11T09:04:23.892Z,1025.92
2019-04-11T09:05:23.297Z,1025.84
2019-04-11T09:06:22.914Z,1025.82
2019-04-11T09:07:23.285Z,1025.86
2019-04-11T09:08:23.777Z,1025.87
2019-04-11T09:09:23.328Z,1025.87
2019-04-11T09:10:22.614Z,1025.89
2019-04-11T09:11:22.643Z,1025.90
2019-04-11T09:12:22.602Z,1025.99
2019-04-11T09:13:22.982Z,1025.94
2019-04-11T09:14:22.539Z,1025.96
2019-04-11T09:15:22.610Z,1025.90
2019-04-11T09:16:23.631Z,1025.79
2019-04-11T09:17:23.382Z,1025.95
2019-04-11T09:18:22.493Z,1025.85
2019-04-11T09:19:23.032Z,1025.90
2019-04-11T09:20:23.360Z,1025.99
2019-04-11T09:21:22.482Z,1025.84
2019-04-11T09:22:22.649Z,1025.87
2019-04-11T09:23:22.458Z,1025.86
2019-04-11T09:24:22.443Z,1025.96
2019-04-11T09:25:23.288Z,1025.95
2019-04-11T09:26:23.333Z,1025.94
2019-04-11T09:27:22.630Z,1025.89
2019-04-11T09:28:22.396Z,1025.82
2019-04-11T09:29:22.394Z,1025.87
2019-04-11T09:30:23.069Z,1025.94
2019-04-11T09:31:22.365Z,1025.96
2019-04-11T09:32:22.363Z,1025.95
2019-04-11T09:33:22.677Z,1025.86
2019-04-11T09:34:22.324Z,1025.89
2019-04-11T09:35:22.303Z,1025.92
2019-04-11T09:36:22.316Z,1025.88
2019-04-11T09:37:22.287Z,1025.81
2019-04-11T09:38:22.283Z,1025.87
2019-04-11T09:39:23.258Z,1025.92
2019-04-11T09:40:23.942Z,1025.84
2019-04-11T09:41:22.674Z,1025.86
2019-04-11T09:42:23.010Z,1025.91
2019-04-11T09:43:22.309Z,1025.86
2019-04-11T09:44:22.508Z,1025.79
2019-04-11T09:45:22.231Z,1025.89
2019-04-11T09:46:22.219Z,1025.94
2019-04-11T09:47:22.497Z,1025.95
2019-04-11T09:48:23.374Z,1025.88
2019-04-11T09:49:22.744Z,1025.85
2019-04-11T09:50:22.423Z,1025.92
2019-04-11T09:51:23.366Z,1025.91
2019-04-11T09:52:22.740Z,1025.86
2019-04-11T09:53:22.757Z,1025.80
2019-04-11T09:54:22.178Z,1025.82
2019-04-11T09:55:23.298Z,1025.80
2019-04-11T09:56:22.872Z,1025.88
2019-04-11T09:57:22.851Z,1025.96
2019-04-11T09:58:23.174Z,1025.82
2019-04-11T09:59:23.014Z,1025.81
2019-04-11T10:00:22.900Z,1025.89
2019-04-11T10:01:22.421Z,1025.84
2019-04-11T10:02:23.267Z,1025.79
2019-04-11T10:03:23.367Z,1025.93
2019-04-11T10:04:23.324Z,1025.89
2019-04-11T10:05:22.316Z,1025.93
2019-04-11T10:06:21.973Z,1025.90
2019-04-11T10:07:21.972Z,1025.87
2019-04-11T10:08:22.488Z,1025.92
2019-04-11T10:09:22.037Z,1025.93
2019-04-11T10:10:21.926Z,1026.00
2019-04-11T10:11:22.021Z,1025.88
2019-04-11T10:12:22.136Z,1025.87
2019-04-11T10:13:21.897Z,1025.87
2019-04-11T10:14:21.895Z,1025.78
2019-04-11T10:15:23.151Z,1025.80
2019-04-11T10:16:22.644Z,1025.84
2019-04-11T10:17:24.533Z,1025.90
2019-04-11T10:18:26.140Z,1025.83
2019-04-11T10:19:24.210Z,1025.85
2019-04-11T10:20:21.825Z,1025.84
2019-04-11T10:21:23.013Z,1025.88
2019-04-11T10:22:22.732Z,1025.88
2019-04-11T10:23:22.818Z,1025.86
2019-04-11T10:24:22.424Z,1025.91
2019-04-11T10:25:23.133Z,1025.85
2019-04-11T10:26:21.753Z,1025.84
2019-04-11T10:27:22.588Z,1025.89
2019-04-11T10:28:21.839Z,1025.80
2019-04-11T10:29:21.753Z,1025.86
2019-04-11T10:30:22.913Z,1025.85
2019-04-11T10:31:22.398Z,1025.93
2019-04-11T10:32:21.689Z,1025.88
2019-04-11T10:33:22.600Z,1025.96
2019-04-11T10:34:21.727Z,1025.85
2019-04-11T10:35:22.050Z,1025.92
2019-04-11T10:36:21.666Z,1025.87
2019-04-11T10:37:21.676Z,1025.85
2019-04-11T10:38:22.501Z,1025.96
2019-04-11T10:39:21.651Z,1025.80
2019-04-11T10:40:21.702Z,1025.83
2019-04-11T10:41:21.617Z,1025.89
2019-04-11T10:42:22.169Z,1025.88
2019-04-11T10:43:22.450Z,1025.81
2019-04-11T10:44:21.586Z,1025.84
2019-04-11T10:45:22.589Z,1025.77
2019-04-11T10:46:21.574Z,1025.80
2019-04-11T10:47:22.815Z,1025.75
2019-04-11T10:48:33.532Z,1025.76
2019-04-11T10:49:22.503Z,1025.86
2019-04-11T10:50:21.792Z,1025.74
2019-04-11T10:51:22.548Z,1025.70
2019-04-11T10:52:22.525Z,1025.72
2019-04-11T10:53:22.813Z,1025.70
2019-04-11T10:54:21.845Z,1025.77
2019-04-11T10:55:21.838Z,1025.74
2019-04-11T10:56:22.217Z,1025.74
2019-04-11T10:57:22.500Z,1025.64
2019-04-11T10:58:21.580Z,1025.79
2019-04-11T10:59:21.618Z,1025.74
2019-04-11T11:00:21.396Z,1025.74
2019-04-11T11:01:21.951Z,1025.72
2019-04-11T11:02:21.389Z,1025.76
2019-04-11T11:03:22.246Z,1025.78
2019-04-11T11:04:21.345Z,1025.70
2019-04-11T11:05:22.173Z,1025.67
2019-04-11T11:06:21.858Z,1025.77
2019-04-11T11:07:21.348Z,1025.71
2019-04-11T11:08:21.619Z,1025.74
2019-04-11T11:09:21.862Z,1025.73
2019-04-11T11:10:21.657Z,1025.74
2019-04-11T11:11:21.972Z,1025.69
2019-04-11T11:12:21.308Z,1025.77
2019-04-11T11:13:21.631Z,1025.75
2019-04-11T11:14:21.244Z,1025.75
2019-04-11T11:15:23.184Z,1025.66
2019-04-11T11:16:22.282Z,1025.72
2019-04-11T11:17:43.855Z,1025.64
2019-04-11T11:19:40.301Z,1025.69
2019-04-11T11:20:28.447Z,1025.79
2019-04-11T11:21:26.563Z,1025.80
2019-04-11T11:22:23.751Z,1025.82
2019-04-11T11:23:21.143Z,1025.80
2019-04-11T11:24:23.895Z,1025.82
2019-04-11T11:25:22.392Z,1025.84
2019-04-11T11:26:22.835Z,1025.80
2019-04-11T11:27:22.258Z,1025.78
2019-04-11T11:28:21.507Z,1025.82
2019-04-11T11:29:21.080Z,1025.77
2019-04-11T11:30:21.150Z,1025.77
2019-04-11T11:31:22.288Z,1025.78
2019-04-11T11:32:21.172Z,1025.88
2019-04-11T11:33:22.211Z,1025.77
2019-04-11T11:34:22.101Z,1025.85
2019-04-11T11:35:26.054Z,1025.80
2019-04-11T11:36:22.015Z,1025.87
2019-04-11T11:37:20.993Z,1025.88
2019-04-11T11:38:21.943Z,1025.86
2019-04-11T11:39:20.980Z,1025.80
2019-04-11T11:40:21.808Z,1025.88
2019-04-11T11:41:21.030Z,1025.79
2019-04-11T11:42:22.279Z,1025.88
2019-04-11T11:43:21.181Z,1025.80
2019-04-11T11:44:20.918Z,1025.76
2019-04-11T11:45:21.505Z,1025.74
2019-04-11T11:46:25.607Z,1025.79
2019-04-11T11:47:21.890Z,1025.76
2019-04-11T11:48:22.326Z,1025.63
2019-04-11T11:49:39.419Z,1025.75
2019-04-11T11:50:23.673Z,1025.70
2019-04-11T11:51:25.597Z,1025.68
2019-04-11T11:52:22.801Z,1025.68
2019-04-11T11:53:20.818Z,1025.70
2019-04-11T11:54:21.913Z,1025.73
2019-04-11T11:55:21.846Z,1025.71
2019-04-11T11:56:22.008Z,1025.73
2019-04-11T11:57:20.772Z,1025.79
2019-04-11T11:58:21.579Z,1025.67
2019-04-11T11:59:20.772Z,1025.63
2019-04-11T12:00:21.086Z,1025.76
2019-04-11T12:01:21.855Z,1025.67
2019-04-11T12:02:22.385Z,1025.71
2019-04-11T12:03:23.422Z,1025.71
2019-04-11T12:04:24.056Z,1025.76
2019-04-11T12:05:20.692Z,1025.76
2019-04-11T12:06:22.245Z,1025.69
2019-04-11T12:07:21.048Z,1025.65
2019-04-11T12:08:20.667Z,1025.69
2019-04-11T12:09:20.659Z,1025.64
2019-04-11T12:10:22.493Z,1025.76
2019-04-11T12:11:20.643Z,1025.70